createdAt,value
2018-03-15T00:00:40.684Z,7.07
2018-03-15T00:03:13.675Z,5.13
2018-03-15T00:05:41.195Z,5.40
2018-03-15T00:08:08.734Z,5.90
2018-03-15T00:10:36.262Z,5.70
2018-03-15T00:13:03.785Z,6.70
2018-03-15T00:15:32.286Z,5.70
2018-03-15T00:17:59.808Z,7.40
2018-03-15T00:20:27.367Z,4.63
2018-03-15T00:22:54.891Z,4.87
2018-03-15T00:25:23.199Z,5.43
2018-03-15T00:27:50.714Z,11.13
2018-03-15T00:30:18.267Z,24.00
2018-03-15T00:32:45.789Z,4.20
2018-03-15T00:35:13.310Z,6.87
2018-03-15T00:37:41.636Z,5.57
2018-03-15T00:40:09.146Z,7.17
2018-03-15T00:42:37.470Z,8.57
2018-03-15T00:45:05.904Z,6.90
2018-03-15T00:47:34.230Z,12.57
2018-03-15T00:50:01.751Z,5.50
2018-03-15T00:52:30.068Z,9.30
2018-03-15T00:54:57.574Z,5.90
2018-03-15T00:57:25.855Z,4.20
2018-03-15T00:59:54.170Z,5.33
2018-03-15T01:02:22.642Z,5.73
2018-03-15T01:04:50.194Z,5.13
2018-03-15T01:07:17.711Z,5.57
2018-03-15T01:09:46.009Z,4.30
2018-03-15T01:12:14.299Z,4.90
2018-03-15T01:14:41.842Z,7.63
2018-03-15T01:17:09.359Z,3.13
2018-03-15T01:19:36.874Z,4.13
2018-03-15T01:22:04.424Z,2.93
2018-03-15T01:24:31.966Z,12.87
2018-03-15T01:26:59.521Z,2.50
2018-03-15T01:29:27.990Z,6.77
2018-03-15T01:31:55.530Z,5.17
2018-03-15T01:34:23.052Z,3.13
2018-03-15T01:36:50.593Z,4.97
2018-03-15T01:39:19.076Z,3.80
2018-03-15T01:41:46.609Z,2.47
2018-03-15T01:44:14.935Z,4.03
2018-03-15T01:46:42.458Z,7.93
2018-03-15T01:49:10.009Z,3.43
2018-03-15T01:51:37.530Z,12.07
2018-03-15T01:54:05.076Z,3.93
2018-03-15T01:56:33.561Z,2.67
2018-03-15T01:59:01.115Z,3.80
2018-03-15T02:01:28.644Z,8.13
2018-03-15T02:03:56.158Z,4.17
2018-03-15T02:06:23.889Z,2.53
2018-03-15T02:08:51.420Z,9.57
2018-03-15T02:11:18.984Z,5.63
2018-03-15T02:13:46.512Z,30.43
2018-03-15T02:16:15.042Z,6.23
2018-03-15T02:18:42.570Z,4.93
2018-03-15T02:21:10.895Z,2.70
2018-03-15T02:23:38.407Z,6.60
2018-03-15T02:26:06.690Z,12.50
2018-03-15T02:28:35.006Z,3.30
2018-03-15T02:31:02.534Z,3.23
2018-03-15T02:33:30.079Z,2.63
2018-03-15T02:35:58.362Z,2.80
2018-03-15T02:38:25.928Z,1.90
2018-03-15T02:40:53.444Z,2.87
2018-03-15T02:43:20.998Z,3.70
2018-03-15T02:45:48.525Z,5.27
2018-03-15T02:48:16.059Z,3.03
2018-03-15T02:50:44.371Z,2.30
2018-03-15T02:53:11.897Z,5.00
2018-03-15T02:55:39.443Z,2.80
2018-03-15T02:58:06.970Z,2.17
2018-03-15T03:00:34.523Z,3.63
2018-03-15T03:03:02.153Z,2.20
2018-03-15T03:05:29.696Z,4.90
2018-03-15T03:07:57.385Z,2.97
2018-03-15T03:10:25.873Z,2.57
2018-03-15T03:12:53.414Z,9.30
2018-03-15T03:15:20.936Z,2.73
2018-03-15T03:17:48.496Z,3.70
2018-03-15T03:20:16.026Z,2.00
2018-03-15T03:22:43.582Z,4.67
2018-03-15T03:25:11.108Z,4.70
2018-03-15T03:27:38.662Z,2.30
2018-03-15T03:30:06.183Z,1.97
2018-03-15T03:32:34.659Z,2.73
2018-03-15T03:35:02.282Z,5.23
2018-03-15T03:37:30.525Z,2.93
2018-03-15T03:40:00.791Z,3.30
2018-03-15T03:42:28.318Z,3.73
2018-03-15T03:44:57.829Z,3.60
2018-03-15T03:47:25.354Z,2.03
2018-03-15T03:49:53.386Z,5.93
2018-03-15T03:52:20.904Z,10.07
2018-03-15T03:54:48.428Z,7.10
2018-03-15T03:57:15.976Z,4.10
2018-03-15T03:59:43.496Z,2.67
2018-03-15T04:02:11.046Z,50.63
2018-03-15T04:04:38.568Z,3.40
2018-03-15T04:07:06.123Z,8.47
2018-03-15T04:09:34.621Z,28.67
2018-03-15T04:12:02.162Z,13.03
2018-03-15T04:14:29.686Z,6.90
2018-03-15T04:16:57.219Z,17.77
2018-03-15T04:19:24.771Z,5.23
2018-03-15T04:21:53.221Z,58.33
2018-03-15T04:24:20.763Z,10.83
2018-03-15T04:26:48.294Z,7.67
2018-03-15T04:29:15.867Z,13.10
2018-03-15T04:31:43.381Z,19.17
2018-03-15T04:34:11.744Z,34.13
2018-03-15T04:36:39.244Z,8.17
2018-03-15T04:39:06.802Z,19.73
2018-03-15T04:41:34.327Z,7.87
2018-03-15T04:44:02.607Z,17.77
2018-03-15T04:46:31.830Z,7.50
2018-03-15T04:49:00.599Z,22.27
2018-03-15T04:51:28.127Z,4.30
2018-03-15T04:53:55.658Z,23.43
2018-03-15T04:56:23.194Z,6.90
2018-03-15T04:58:50.709Z,9.83
2018-03-15T05:01:18.264Z,11.70
2018-03-15T05:03:45.935Z,9.97
2018-03-15T05:06:14.222Z,10.07
2018-03-15T05:08:42.540Z,6.43
2018-03-15T05:11:10.230Z,4.60
2018-03-15T05:13:37.778Z,18.37
2018-03-15T05:16:05.298Z,16.70
2018-03-15T05:18:33.869Z,10.40
2018-03-15T05:21:01.422Z,10.47
2018-03-15T05:23:28.969Z,19.33
2018-03-15T05:25:58.442Z,19.27
2018-03-15T05:28:25.985Z,9.50
2018-03-15T05:30:53.510Z,7.17
2018-03-15T05:33:21.067Z,5.23
2018-03-15T05:35:48.581Z,4.27
2018-03-15T05:43:41.669Z,6.10
2018-03-15T05:46:09.206Z,5.00
2018-03-15T05:48:36.732Z,6.17
2018-03-15T05:51:04.271Z,8.20
2018-03-15T05:53:31.823Z,11.10
2018-03-15T05:55:59.361Z,6.93
2018-03-15T05:58:26.886Z,8.40
2018-03-15T06:00:54.410Z,8.60
2018-03-15T06:03:21.969Z,5.67
2018-03-15T06:05:51.234Z,10.30
2018-03-15T06:08:18.769Z,7.87
2018-03-15T06:10:47.084Z,6.63
2018-03-15T06:13:14.646Z,4.90
2018-03-15T06:15:42.192Z,5.23
2018-03-15T06:18:09.726Z,4.77
2018-03-15T06:20:37.307Z,44.93
2018-03-15T06:23:04.883Z,17.60
2018-03-15T06:25:32.518Z,28.33
2018-03-15T06:28:00.277Z,23.40
2018-03-15T06:30:27.973Z,9.60
2018-03-15T06:32:57.419Z,24.67
2018-03-15T06:35:25.722Z,10.07
2018-03-15T06:37:53.266Z,17.80
2018-03-15T06:40:20.826Z,15.17
2018-03-15T06:42:48.350Z,11.80
2018-03-15T06:45:16.657Z,12.90
2018-03-15T06:47:44.182Z,5.73
2018-03-15T06:50:13.418Z,3.60
2018-03-15T06:52:40.981Z,13.70
2018-03-15T06:55:08.521Z,17.33
2018-03-15T06:57:36.063Z,16.10
2018-03-15T07:00:03.578Z,16.30
2018-03-15T07:02:31.100Z,10.30
2018-03-15T07:04:58.658Z,11.60
2018-03-15T07:07:26.236Z,11.17
2018-03-15T07:09:55.736Z,15.53
2018-03-15T07:12:23.245Z,7.40
2018-03-15T07:14:50.758Z,7.73
2018-03-15T07:17:18.305Z,6.07
2018-03-15T07:19:46.774Z,10.90
2018-03-15T07:22:16.249Z,8.70
2018-03-15T07:24:44.537Z,19.13
2018-03-15T07:27:12.071Z,8.87
2018-03-15T07:29:41.562Z,9.73
2018-03-15T07:32:09.111Z,9.97
2018-03-15T07:34:36.671Z,11.17
2018-03-15T07:37:04.194Z,15.63
2018-03-15T07:39:31.716Z,13.40
2018-03-15T07:41:59.266Z,9.50
2018-03-15T07:44:27.558Z,20.43
2018-03-15T07:46:55.110Z,8.30
2018-03-15T07:49:22.664Z,11.63
2018-03-15T07:51:50.906Z,10.23
2018-03-15T07:54:18.514Z,10.10
2018-03-15T07:56:46.034Z,13.33
2018-03-15T07:59:13.590Z,11.83
2018-03-15T08:01:41.130Z,11.37
2018-03-15T08:04:08.649Z,12.97
2018-03-15T08:06:36.966Z,9.20
2018-03-15T08:09:05.445Z,12.27
2018-03-15T08:11:33.044Z,13.03
2018-03-15T08:14:01.344Z,11.73
2018-03-15T08:16:28.863Z,8.83
2018-03-15T08:18:56.415Z,7.83
2018-03-15T08:21:23.933Z,14.07
2018-03-15T08:23:51.474Z,7.63
2018-03-15T08:26:18.990Z,5.50
2018-03-15T08:28:46.539Z,12.77
2018-03-15T08:31:14.098Z,10.03
2018-03-15T08:33:41.828Z,9.53
2018-03-15T08:36:10.520Z,9.83
2018-03-15T08:38:38.058Z,6.83
2018-03-15T08:41:06.382Z,9.40
2018-03-15T08:43:33.939Z,7.10
2018-03-15T08:46:01.472Z,10.70
2018-03-15T08:48:29.015Z,15.00
2018-03-15T08:50:57.294Z,6.90
2018-03-15T08:53:24.814Z,6.80
2018-03-15T08:55:52.369Z,10.30
2018-03-15T08:58:19.903Z,13.33
2018-03-15T09:00:47.466Z,10.60
2018-03-15T09:03:14.986Z,11.07
2018-03-15T09:05:42.693Z,11.73
2018-03-15T09:08:10.083Z,11.90
2018-03-15T09:10:37.654Z,16.80
2018-03-15T09:13:05.210Z,19.20
2018-03-15T09:15:33.528Z,14.40
2018-03-15T09:18:01.054Z,17.13
2018-03-15T09:20:28.648Z,19.50
2018-03-15T09:22:56.210Z,15.47
2018-03-15T09:25:23.771Z,25.60
2018-03-15T09:27:51.326Z,22.97
2018-03-15T09:30:19.081Z,22.25
2018-03-15T09:32:46.654Z,25.83
2018-03-15T09:35:14.242Z,20.70
2018-03-15T09:37:41.842Z,16.67
2018-03-15T09:40:09.731Z,22.23
2018-03-15T09:42:37.365Z,18.43
2018-03-15T09:45:05.187Z,23.70
2018-03-15T09:47:33.810Z,20.40
2018-03-15T09:50:02.213Z,28.60
2018-03-15T09:52:29.875Z,40.30
2018-03-15T09:54:57.541Z,19.20
2018-03-15T09:57:25.087Z,23.93
2018-03-15T09:59:52.646Z,17.70
2018-03-15T10:02:20.186Z,24.40
2018-03-15T10:04:47.753Z,25.37
2018-03-15T10:07:15.350Z,25.33
2018-03-15T10:09:42.917Z,21.20
2018-03-15T10:12:10.508Z,28.93
2018-03-15T10:14:38.119Z,22.20
2018-03-15T10:17:05.695Z,17.50
2018-03-15T10:19:33.270Z,29.93
2018-03-15T10:22:00.834Z,20.43
2018-03-15T10:24:28.402Z,19.77
2018-03-15T10:26:55.970Z,14.43
2018-03-15T10:29:23.511Z,26.43
2018-03-15T10:31:51.853Z,18.23
2018-03-15T10:34:19.410Z,17.20
2018-03-15T10:36:46.973Z,17.57
2018-03-15T10:39:14.530Z,14.77
2018-03-15T10:41:42.066Z,14.33
2018-03-15T10:44:11.648Z,19.43
2018-03-15T10:46:39.205Z,18.37
2018-03-15T10:49:06.789Z,20.53
2018-03-15T10:51:34.334Z,16.07
2018-03-15T10:54:01.884Z,23.27
2018-03-15T10:56:31.212Z,18.23
2018-03-15T10:58:58.754Z,26.17
2018-03-15T11:01:26.347Z,23.10
2018-03-15T11:04:11.618Z,24.37
2018-03-15T11:06:41.077Z,37.37
2018-03-15T11:09:14.381Z,22.60
2018-03-15T11:11:41.948Z,20.17
2018-03-15T11:14:09.510Z,18.10
2018-03-15T11:16:37.094Z,28.33
2018-03-15T11:19:04.686Z,21.57
2018-03-15T11:21:32.234Z,24.10
2018-03-15T11:23:59.825Z,24.27
2018-03-15T11:26:27.439Z,23.00
2018-03-15T11:28:54.971Z,26.93
2018-03-15T11:31:22.584Z,20.93
2018-03-15T11:33:50.135Z,25.03
2018-03-15T11:36:17.705Z,24.50
2018-03-15T11:38:45.234Z,23.13
2018-03-15T11:41:13.747Z,16.40
2018-03-15T11:43:41.362Z,21.00
2018-03-15T11:46:09.823Z,16.67
2018-03-15T11:48:37.461Z,22.30
2018-03-15T11:51:05.025Z,27.17
2018-03-15T11:53:32.575Z,20.00
2018-03-15T11:56:00.140Z,20.57
2018-03-15T11:58:27.686Z,18.47
2018-03-15T12:00:56.031Z,17.27
2018-03-15T12:03:23.585Z,19.93
2018-03-15T12:05:51.143Z,20.13
2018-03-15T12:08:18.700Z,25.50
2018-03-15T12:10:46.264Z,21.33
2018-03-15T12:13:13.862Z,18.17
2018-03-15T12:15:41.425Z,19.70
2018-03-15T12:18:09.739Z,24.23
2018-03-15T12:20:37.358Z,24.10
2018-03-15T12:23:04.892Z,17.23
2018-03-15T12:25:32.442Z,17.03
2018-03-15T12:27:59.972Z,25.83
2018-03-15T12:30:27.502Z,36.43
2018-03-15T12:32:55.050Z,15.23
2018-03-15T12:35:23.540Z,13.63
2018-03-15T12:37:51.103Z,19.87
2018-03-15T12:40:19.472Z,25.73
2018-03-15T12:42:47.002Z,17.00
2018-03-15T12:45:14.561Z,20.60
2018-03-15T12:47:42.089Z,22.70
2018-03-15T12:50:09.640Z,19.93
2018-03-15T12:52:38.122Z,24.90
2018-03-15T12:55:06.130Z,18.70
2018-03-15T12:57:33.669Z,22.10
2018-03-15T13:00:01.208Z,22.40
2018-03-15T13:02:28.791Z,29.27
2018-03-15T13:04:56.334Z,14.27
2018-03-15T13:07:25.857Z,18.53
2018-03-15T13:09:53.394Z,25.53
2018-03-15T13:12:20.922Z,16.47
2018-03-15T13:14:49.613Z,26.27
2018-03-15T13:17:17.182Z,41.80
2018-03-15T13:19:45.501Z,28.03
2018-03-15T13:22:13.028Z,22.63
2018-03-15T13:24:40.562Z,25.37
2018-03-15T13:27:09.856Z,30.05
2018-03-15T13:29:37.377Z,23.60
2018-03-15T13:32:04.926Z,33.20
2018-03-15T13:34:32.612Z,25.80
2018-03-15T13:37:00.280Z,38.03
2018-03-15T13:39:27.942Z,35.43
2018-03-15T13:41:55.490Z,44.83
2018-03-15T13:44:23.050Z,95.23
2018-03-15T13:46:50.601Z,31.07
2018-03-15T13:49:18.131Z,26.10
2018-03-15T13:51:45.669Z,33.33
2018-03-15T13:54:13.208Z,27.70
2018-03-15T13:56:40.766Z,44.40
2018-03-15T13:59:08.285Z,29.67
2018-03-15T14:01:35.807Z,33.90
2018-03-15T14:04:03.354Z,47.47
2018-03-15T14:06:31.846Z,33.23
2018-03-15T14:09:01.347Z,39.73
2018-03-15T14:11:28.871Z,29.13
2018-03-15T14:13:57.394Z,27.70
2018-03-15T14:16:25.705Z,35.97
2018-03-15T14:18:54.210Z,34.23
2018-03-15T14:21:21.753Z,29.30
2018-03-15T14:23:49.302Z,30.30
2018-03-15T14:26:16.817Z,29.20
2018-03-15T14:28:45.172Z,33.63
2018-03-15T14:31:12.707Z,35.03
2018-03-15T14:33:40.252Z,28.17
2018-03-15T14:36:07.770Z,26.83
2018-03-15T14:38:36.050Z,28.67
2018-03-15T14:41:05.345Z,26.77
2018-03-15T14:43:33.822Z,29.70
2018-03-15T14:46:01.370Z,25.00
2018-03-15T14:48:28.898Z,21.50
2018-03-15T14:50:57.395Z,25.57
2018-03-15T14:53:24.937Z,36.03
2018-03-15T14:55:52.467Z,30.37
2018-03-15T14:58:21.983Z,29.93
2018-03-15T15:00:49.498Z,34.07
2018-03-15T15:03:17.015Z,25.30
2018-03-15T15:05:44.571Z,33.23
2018-03-15T15:08:12.083Z,28.77
2018-03-15T15:10:39.606Z,26.73
2018-03-15T15:13:07.147Z,27.77
2018-03-15T15:15:34.693Z,29.13
2018-03-15T15:18:02.211Z,28.13
2018-03-15T15:20:29.790Z,35.03
2018-03-15T15:23:03.454Z,35.00
2018-03-15T15:25:44.011Z,35.23
2018-03-15T15:28:11.659Z,33.03
2018-03-15T15:30:39.222Z,30.93
2018-03-15T15:33:06.800Z,30.60
2018-03-15T15:35:34.347Z,31.47
2018-03-15T15:38:01.913Z,32.50
2018-03-15T15:40:30.528Z,32.27
2018-03-15T15:42:58.066Z,27.70
2018-03-15T15:45:25.610Z,36.80
2018-03-15T15:47:55.179Z,27.90
2018-03-15T15:50:23.730Z,33.80
2018-03-15T15:52:51.288Z,25.50
2018-03-15T15:55:18.903Z,29.30
2018-03-15T15:57:46.482Z,30.27
2018-03-15T16:00:14.044Z,26.20
2018-03-15T16:02:41.592Z,33.47
2018-03-15T16:05:09.125Z,49.67
2018-03-15T16:07:36.738Z,27.40
2018-03-15T16:10:05.039Z,31.87
2018-03-15T16:12:33.560Z,29.70
2018-03-15T16:15:01.105Z,40.93
2018-03-15T16:17:28.634Z,34.50
2018-03-15T16:19:58.138Z,29.67
2018-03-15T16:22:25.672Z,30.00
2018-03-15T16:24:53.198Z,34.70
2018-03-15T16:27:20.758Z,31.87
2018-03-15T16:29:48.344Z,50.63
2018-03-15T16:32:15.890Z,35.30
2018-03-15T16:34:43.431Z,26.80
2018-03-15T16:37:10.978Z,38.63
2018-03-15T16:39:38.553Z,31.83
2018-03-15T16:42:06.085Z,33.03
2018-03-15T16:44:35.573Z,25.90
2018-03-15T16:47:03.100Z,30.67
2018-03-15T16:49:30.626Z,35.03
2018-03-15T16:51:58.199Z,32.03
2018-03-15T16:54:26.691Z,46.27
2018-03-15T16:56:55.030Z,30.17
2018-03-15T16:59:22.554Z,35.57
2018-03-15T17:01:50.072Z,29.60
2018-03-15T17:04:17.626Z,43.40
2018-03-15T17:06:46.121Z,48.40
2018-03-15T17:09:13.723Z,33.10
2018-03-15T17:11:41.298Z,32.80
2018-03-15T17:14:08.841Z,29.23
2018-03-15T17:16:39.149Z,33.37
2018-03-15T17:19:07.469Z,36.90
2018-03-15T17:21:35.024Z,33.70
2018-03-15T17:24:02.550Z,37.53
2018-03-15T17:26:30.072Z,34.00
2018-03-15T17:28:57.621Z,36.00
2018-03-15T17:31:25.192Z,26.13
2018-03-15T17:33:52.749Z,26.77
2018-03-15T17:36:20.369Z,35.70
2018-03-15T17:38:47.899Z,28.87
2018-03-15T17:41:15.465Z,34.10
2018-03-15T17:43:43.794Z,32.13
2018-03-15T17:46:11.352Z,31.90
2018-03-15T17:48:39.183Z,35.60
2018-03-15T17:51:06.707Z,33.00
2018-03-15T17:53:36.243Z,43.87
2018-03-15T17:56:03.784Z,5.93
2018-03-15T17:58:31.330Z,7.47
2018-03-15T18:00:58.842Z,4.10
2018-03-15T18:03:26.361Z,4.80
2018-03-15T18:05:53.910Z,6.10
2018-03-15T18:08:21.433Z,6.17
2018-03-15T18:10:50.892Z,3.73
2018-03-15T18:13:23.962Z,2.03
2018-03-15T18:15:59.678Z,3.42
2018-03-15T18:18:28.222Z,2.40
2018-03-15T18:20:55.747Z,3.63
2018-03-15T18:23:23.281Z,3.10
2018-03-15T18:25:50.823Z,2.53
2018-03-15T18:28:18.375Z,2.40
2018-03-15T18:30:46.941Z,2.83
2018-03-15T18:33:14.795Z,2.87
2018-03-15T18:35:42.354Z,3.17
2018-03-15T18:38:09.878Z,5.10
2018-03-15T18:40:37.442Z,2.33
2018-03-15T18:43:04.964Z,3.47
2018-03-15T18:45:32.478Z,2.93
2018-03-15T18:48:00.784Z,3.10
2018-03-15T18:50:28.302Z,4.17
2018-03-15T18:52:55.844Z,2.40
2018-03-15T18:55:23.393Z,4.30
2018-03-15T18:57:50.911Z,3.90
2018-03-15T19:00:18.512Z,2.87
2018-03-15T19:02:46.038Z,2.47
2018-03-15T19:05:13.591Z,1.60
2018-03-15T19:07:41.111Z,3.30
2018-03-15T19:10:08.642Z,2.00
2018-03-15T19:12:36.181Z,1.33
2018-03-15T19:15:03.738Z,2.37
2018-03-15T19:17:31.910Z,1.20
2018-03-15T19:20:00.272Z,1.97
2018-03-15T19:22:27.810Z,2.23
2018-03-15T19:24:55.406Z,2.33
2018-03-15T19:27:23.273Z,1.80
2018-03-15T19:29:50.845Z,2.77
2018-03-15T19:32:18.415Z,2.03
2018-03-15T19:34:45.933Z,2.63
2018-03-15T19:37:13.515Z,2.73
2018-03-15T19:39:41.160Z,2.23
2018-03-15T19:42:08.758Z,1.50
2018-03-15T19:44:37.830Z,3.47
2018-03-15T19:47:05.378Z,1.20
2018-03-15T19:49:32.918Z,6.20
2018-03-15T19:52:00.467Z,1.30
2018-03-15T19:54:28.037Z,1.10
2018-03-15T19:56:55.574Z,3.33
2018-03-15T19:59:23.089Z,1.17
2018-03-15T20:01:50.647Z,21.37
2018-03-15T20:04:18.183Z,1.47
2018-03-15T20:06:45.749Z,1.80
2018-03-15T20:09:13.262Z,1.90
2018-03-15T20:11:40.778Z,1.50
2018-03-15T20:14:09.316Z,2.40
2018-03-15T20:16:36.858Z,2.00
2018-03-15T20:19:10.084Z,2.57
2018-03-15T20:21:38.672Z,1.60
2018-03-15T20:24:11.963Z,1.57
2018-03-15T20:26:39.484Z,1.50
2018-03-15T20:29:07.035Z,2.50
2018-03-15T20:31:34.569Z,3.10
2018-03-15T20:34:07.791Z,10.03
2018-03-15T20:36:35.321Z,5.60
2018-03-15T20:39:08.492Z,3.03
2018-03-15T20:41:36.062Z,2.60
2018-03-15T20:44:03.578Z,3.03
2018-03-15T20:46:37.618Z,4.70
2018-03-15T20:49:14.790Z,2.63
2018-03-15T20:51:42.344Z,4.50
2018-03-15T20:54:09.874Z,4.03
2018-03-15T20:56:37.426Z,2.73
2018-03-15T20:59:05.042Z,3.50
2018-03-15T21:01:32.576Z,4.50
2018-03-15T21:04:00.113Z,2.03
2018-03-15T21:06:27.627Z,1.73
2018-03-15T21:08:55.162Z,2.03
2018-03-15T21:11:22.682Z,2.90
2018-03-15T21:13:50.995Z,1.53
2018-03-15T21:16:18.554Z,1.50
2018-03-15T21:18:46.074Z,7.73
2018-03-15T21:21:14.611Z,2.70
2018-03-15T21:23:42.120Z,1.50
2018-03-15T21:26:09.686Z,3.50
2018-03-15T21:28:37.237Z,4.93
2018-03-15T21:31:05.546Z,2.63
2018-03-15T21:33:33.115Z,3.70
2018-03-15T21:36:01.617Z,2.60
2018-03-15T21:38:29.131Z,3.33
2018-03-15T21:40:57.621Z,1.80
2018-03-15T21:43:25.167Z,3.73
2018-03-15T21:45:53.702Z,2.97
2018-03-15T21:48:21.254Z,2.83
2018-03-15T21:50:48.779Z,4.30
2018-03-15T21:53:16.321Z,2.60
2018-03-15T21:55:43.866Z,4.93
2018-03-15T21:58:11.406Z,3.30
2018-03-15T22:00:39.035Z,1.70
2018-03-15T22:03:06.550Z,1.73
2018-03-15T22:05:34.093Z,2.60
2018-03-15T22:08:01.680Z,2.33
2018-03-15T22:10:29.999Z,3.10
2018-03-15T22:12:57.527Z,2.97
2018-03-15T22:15:25.042Z,2.63
2018-03-15T22:17:52.739Z,2.47
2018-03-15T22:20:21.260Z,2.33
2018-03-15T22:22:48.823Z,2.13
2018-03-15T22:25:16.342Z,10.70
2018-03-15T22:27:44.821Z,2.20
2018-03-15T22:30:13.125Z,1.80
2018-03-15T22:32:40.645Z,2.70
2018-03-15T22:35:08.186Z,3.50
2018-03-15T22:37:35.694Z,2.17
2018-03-15T22:40:03.202Z,2.93
2018-03-15T22:42:30.755Z,4.20
2018-03-15T22:44:58.263Z,5.57
2018-03-15T22:47:25.812Z,3.77
2018-03-15T22:49:53.338Z,4.53
2018-03-15T22:52:20.858Z,4.70
2018-03-15T22:54:48.425Z,3.67
2018-03-15T22:57:15.953Z,3.60
2018-03-15T22:59:43.511Z,6.70
2018-03-15T23:02:11.043Z,6.80
2018-03-15T23:04:39.539Z,11.77
2018-03-15T23:07:07.091Z,3.40
2018-03-15T23:09:34.619Z,3.03
2018-03-15T23:12:02.173Z,2.63
2018-03-15T23:14:29.686Z,6.83
2018-03-15T23:16:58.133Z,2.23
2018-03-15T23:19:26.442Z,2.50
2018-03-15T23:21:53.963Z,2.53
2018-03-15T23:24:21.506Z,2.73
2018-03-15T23:26:49.031Z,2.20
2018-03-15T23:29:16.556Z,2.93
2018-03-15T23:31:44.112Z,1.77
2018-03-15T23:34:12.404Z,14.53
2018-03-15T23:36:39.953Z,2.33
2018-03-15T23:39:08.235Z,3.37
2018-03-15T23:41:35.808Z,2.10
2018-03-15T23:44:04.108Z,1.83
2018-03-15T23:46:31.622Z,1.70
2018-03-15T23:49:00.133Z,4.27
2018-03-15T23:51:27.654Z,2.73
2018-03-15T23:53:55.935Z,1.63
2018-03-15T23:56:23.498Z,4.13
2018-03-15T23:58:51.780Z,3.20
